European Causeway — C6RG7 — position and weather

sailwx.info

Track history (hours):
 
Tides and Currents Weather Stations Pressure Air Temp Water Temp Dewpoint Dewpoint Depression Visibility Wind Speed Wind Dir Waves Ship Positions

European Causeway

Operator: P & O Irish Sea

Last reported at 2016-Feb-08 18:31 UTC. Time now 2016-Feb-08 18:56 UTC.
Position N 54°58' W 005°01'.

Length 165 m; draft 5.5 m.

Type: Passenger vessel. MMSI: 311027000.

Date/timePositionNaut miles runAvg speedWind from/ knotsBaromVisibWave heightAir tempDewpointWater temp
2016-Feb-08 18:31N 54°58' W 005°01'1111.7
2016-Feb-08 17:33N 54°58' W 005°21'1717.1
2016-Feb-08 16:33N 54°51' W 005°48'0 0.0
2016-Feb-08 15:33N 54°51' W 005°48'1413.7
2016-Feb-08 14:34N 54°58' W 005°27'1413.6
2016-Feb-08 13:30N 54°58' W 005°02'1 1.0
2016-Feb-08 12:33N 54°58' W 005°01'1010.4
2016-Feb-08 11:34N 54°58' W 005°19'1817.4
2016-Feb-08 10:32N 54°52' W 005°48'1 0.8
2016-Feb-08 09:33N 54°51' W 005°48'1212.4
2016-Feb-08 08:33N 54°56' W 005°28'1514.3
2016-Feb-08 07:31N 54°59' W 005°03'2 2.0
2016-Feb-08 06:33N 54°58' W 005°01'6 5.9
2016-Feb-08 05:34N 55°01' W 005°09'1616.3
2016-Feb-08 04:33N 54°54' W 005°35'8 8.4
2016-Feb-08 03:33N 54°51' W 005°48'0 0.0
2016-Feb-08 02:34N 54°51' W 005°48'0 0.0
2016-Feb-08 01:33N 54°51' W 005°48'6 6.4
2016-Feb-08 00:33N 54°54' W 005°38'1717.1
2016-Feb-07 23:33N 55°02' W 005°11'7 6.8
2016-Feb-07 22:32N 54°58' W 005°01'6 5.7
2016-Feb-07 21:32N 55°02' W 005°08'1717.4
2016-Feb-07 20:33N 54°55' W 005°35'8 7.8
2016-Feb-07 19:30N 54°51' W 005°48'0 0.0
2016-Feb-07 18:33N 54°51' W 005°48'1414.1
2016-Feb-07 17:33N 54°57' W 005°26'1413.5
2016-Feb-07 16:33N 54°59' W 005°03'1 1.5
2016-Feb-07 15:33N 54°58' W 005°01'5 4.8
2016-Feb-07 14:30N 55°01' W 005°07'1617.2
2016-Feb-07 13:34N 54°55' W 005°33'10 9.3
2016-Feb-07 12:31N 54°51' W 005°48'0 0.0
2016-Feb-07 11:31N 54°51' W 005°48'0 0.0
2016-Feb-07 10:31N 54°51' W 005°48'0 0.0
2016-Feb-07 09:33N 54°51' W 005°48'1413.7
2016-Feb-07 08:33N 54°57' W 005°27'1414.0
2016-Feb-07 07:33N 54°59' W 005°02'1 1.4
2016-Feb-07 06:33N 54°58' W 005°01'0 0.0
2016-Feb-07 05:33N 54°58' W 005°01'0 0.0
2016-Feb-07 04:32N 54°58' W 005°01'0 0.0
2016-Feb-07 03:33N 54°58' W 005°01'0 0.0
2016-Feb-07 02:33N 54°58' W 005°01'0 0.0
2016-Feb-07 01:33N 54°58' W 005°01'0 0.0
2016-Feb-07 00:33N 54°58' W 005°01'0 0.0
2016-Feb-06 23:33N 54°58' W 005°01'0 0.0
2016-Feb-06 22:32N 54°58' W 005°01'5 5.2
2016-Feb-06 21:29N 55°02' W 005°08'1617.7
2016-Feb-06 20:34N 54°54' W 005°33'9 8.9
2016-Feb-06 19:32N 54°51' W 005°48'0 0.0
2016-Feb-06 18:33N 54°51' W 005°48'1414.3
2016-Feb-06 17:33N 54°58' W 005°26'1413.6
2016-Feb-06 16:31N 54°58' W 005°01'0 0.4
2016-Feb-06 15:33N 54°58' W 005°01'1110.9
2016-Feb-06 14:34N 54°58' W 005°20'1817.6
2016-Feb-06 13:34N 54°51' W 005°48'0 0.1
2016-Feb-06 12:32N 54°51' W 005°48'1313.3
2016-Feb-06 11:33N 54°57' W 005°28'1514.1
2016-Feb-06 10:31N 54°59' W 005°03'2 1.7
2016-Feb-06 09:33N 54°58' W 005°01'1010.1
2016-Feb-06 08:33N 54°59' W 005°18'1817.2
2016-Feb-06 07:30N 54°52' W 005°48'1 0.9
2016-Feb-06 06:33N 54°51' W 005°48'6 6.1
2016-Feb-06 05:34N 54°54' W 005°39'1817.4
2016-Feb-06 04:31N 55°01' W 005°10'6 6.6
2016-Feb-06 03:33N 54°58' W 005°01'0 0.0
2016-Feb-06 02:33N 54°58' W 005°01'5 5.3
2016-Feb-06 01:33N 55°01' W 005°07'1616.4
2016-Feb-06 00:33N 54°55' W 005°33'9 9.2
2016-Feb-05 23:33N 54°51' W 005°48'0 0.0
2016-Feb-05 22:31N 54°51' W 005°48'6 6.6
2016-Feb-05 21:33N 54°54' W 005°39'1717.3
2016-Feb-05 20:33N 55°01' W 005°11'7 6.5
2016-Feb-05 19:29N 54°58' W 005°01'0 0.0
2016-Feb-05 18:33N 54°58' W 005°01'1110.7
2016-Feb-05 17:34N 54°58' W 005°20'1817.1
2016-Feb-05 16:32N 54°51' W 005°48'0 0.3
2016-Feb-05 15:33N 54°51' W 005°48'1414.4
2016-Feb-05 14:33N 54°58' W 005°26'1413.9
2016-Feb-05 13:32N 54°58' W 005°02'1 0.7
2016-Feb-05 12:33N 54°58' W 005°01'10 9.9
2016-Feb-05 11:34N 54°59' W 005°18'1818.1
2016-Feb-05 10:33N 54°52' W 005°47'1 1.2
2016-Feb-05 09:33N 54°51' W 005°48'1514.9
2016-Feb-05 08:33N 54°58' W 005°25'1413.7
2016-Feb-05 07:33N 54°58' W 005°01'0 0.0
2016-Feb-05 06:33N 54°58' W 005°01'5 4.9
2016-Feb-05 05:29N 55°02' W 005°07'1617.1
2016-Feb-05 04:33N 54°55' W 005°32'10 9.8
2016-Feb-05 03:33N 54°51' W 005°48'0 0.0
2016-Feb-05 02:33N 54°51' W 005°48'5 5.1
2016-Feb-05 01:32N 54°54' W 005°40'1515.7
2016-Feb-05 00:33N 55°00' W 005°16'9 9.1
2016-Feb-04 23:33N 54°58' W 005°01'0 0.0
2016-Feb-04 22:32N 54°58' W 005°01'6 5.5
2016-Feb-04 21:31N 55°02' W 005°08'1818.1
2016-Feb-04 20:31N 54°54' W 005°37'7 6.1
2016-Feb-04 19:23N 54°51' W 005°48'0 0.0
2016-Feb-04 18:33N 54°51' W 005°48'1414.1
2016-Feb-04 17:34N 54°57' W 005°26'1414.0
2016-Feb-04 16:33N 54°58' W 005°02'1 0.8
2016-Feb-04 15:33N 54°58' W 005°01'1110.6
2016-Feb-04 14:33N 54°58' W 005°19'1817.7
2016-Feb-04 13:33N 54°51' W 005°48'0 0.1
2016-Feb-04 12:34N 54°51' W 005°48'1313.2
2016-Feb-04 11:33N 54°57' W 005°28'1514.5
2016-Feb-04 10:33N 54°59' W 005°03'2 1.5
2016-Feb-04 09:32N 54°58' W 005°01'1010.2
2016-Feb-04 08:34N 54°59' W 005°18'1817.3
2016-Feb-04 07:31N 54°52' W 005°47'1 1.3
2016-Feb-04 06:33N 54°51' W 005°48'7 7.0
2016-Feb-04 05:33N 54°55' W 005°38'1818.3
2016-Feb-04 04:33N 55°01' W 005°08'6 5.7
2016-Feb-04 03:34N 54°58' W 005°01'0 0.0
2016-Feb-04 02:34N 54°58' W 005°01'5 4.9
2016-Feb-04 01:28N 55°01' W 005°08'1718.2
2016-Feb-04 00:32N 54°54' W 005°35'8 8.7
2016-Feb-03 23:33N 54°51' W 005°48'0 0.0
2016-Feb-03 22:33N 54°51' W 005°48'8 7.5
2016-Feb-03 21:26N 54°55' W 005°35'1617.6
2016-Feb-03 20:34N 55°02' W 005°11'7 6.1
2016-Feb-03 19:26N 54°58' W 005°01'0 0.0
2016-Feb-03 18:32N 54°58' W 005°01'1111.6
2016-Feb-03 17:33N 54°58' W 005°21'1717.2
2016-Feb-03 16:33N 54°51' W 005°48'0 0.0
2016-Feb-03 15:33N 54°51' W 005°48'1413.6
2016-Feb-03 14:34N 54°57' W 005°27'1414.3
2016-Feb-03 13:34N 54°59' W 005°02'1 1.3
2016-Feb-03 12:33N 54°58' W 005°01'10 9.9
2016-Feb-03 11:33N 54°58' W 005°18'1817.2
2016-Feb-03 10:32N 54°52' W 005°47'1 1.3
2016-Feb-03 09:33N 54°51' W 005°48'1211.6
2016-Feb-03 08:34N 54°57' W 005°30'1615.3
2016-Feb-03 07:30N 54°59' W 005°03'2 1.7
2016-Feb-03 06:33N 54°58' W 005°01'5 4.5
2016-Feb-03 05:29N 55°01' W 005°06'1617.6
2016-Feb-03 04:33N 54°55' W 005°32'10 9.9
2016-Feb-03 03:33N 54°51' W 005°48'0 0.0
2016-Feb-03 02:33N 54°51' W 005°48'6 5.7
2016-Feb-03 01:32N 54°54' W 005°39'1717.1
2016-Feb-03 00:34N 55°01' W 005°13'7 6.6
2016-Feb-02 23:26N 54°58' W 005°01'0 0.0
2016-Feb-02 22:26N 54°58' W 005°01'5 5.7
2016-Feb-02 21:30N 55°01' W 005°08'1718.0
2016-Feb-02 20:32N 54°54' W 005°35'8 8.3
2016-Feb-02 19:33N 54°51' W 005°48'0 0.0
2016-Feb-02 18:33N 54°51' W 005°48'1111.4
2016-Feb-02 17:33N 54°57' W 005°31'1616.0
2016-Feb-02 16:32N 54°59' W 005°03'1 1.5
2016-Feb-02 15:33N 54°58' W 005°01'1111.1
2016-Feb-02 14:33N 54°58' W 005°20'1717.4
2016-Feb-02 13:33N 54°51' W 005°48'0 0.1
2016-Feb-02 12:33N 54°51' W 005°48'1615.7
2016-Feb-02 11:34N 54°58' W 005°24'1312.9
2016-Feb-02 10:33N 54°58' W 005°01'0 0.0
2016-Feb-02 09:33N 54°58' W 005°01'9 8.8
2016-Feb-02 08:33N 54°59' W 005°16'1918.6
2016-Feb-02 07:33N 54°52' W 005°47'1 1.5
2016-Feb-02 06:33N 54°51' W 005°48'6 6.1
2016-Feb-02 05:34N 54°54' W 005°39'1918.2
2016-Feb-02 04:30N 55°02' W 005°08'6 5.6
2016-Feb-02 03:30N 54°58' W 005°01'0 0.0
2016-Feb-02 02:33N 54°58' W 005°01'5 4.8
2016-Feb-02 01:25N 55°01' W 005°08'1619.0
2016-Feb-02 00:33N 54°55' W 005°34'9 9.1
2016-Feb-01 23:34N 54°51' W 005°48'0 0.0
2016-Feb-01 22:34N 54°51' W 005°48'1110.2
2016-Feb-01 21:27N 54°57' W 005°32'1714.9
2016-Feb-01 20:20N 54°59' W 005°02'1 1.5
2016-Feb-01 19:26N 54°58' W 005°01'0 0.1
2016-Feb-01 18:34N 54°58' W 005°01'1515.2
2016-Feb-01 17:33N 54°56' W 005°28'1312.8
2016-Feb-01 16:33N 54°51' W 005°48'0 0.0
2016-Feb-01 15:31N 54°51' W 005°48'1212.8
2016-Feb-01 14:33N 54°57' W 005°29'1515.2
2016-Feb-01 13:33N 54°59' W 005°03'2 1.9
2016-Feb-01 12:33N 54°58' W 005°01'1010.5
2016-Feb-01 11:33N 54°58' W 005°19'1817.9
2016-Feb-01 10:33N 54°51' W 005°48'0 0.1
2016-Feb-01 09:33N 54°51' W 005°48'1111.4
2016-Feb-01 08:33N 54°57' W 005°31'1615.0
2016-Feb-01 07:30N 54°60' W 005°04'2 2.5
2016-Feb-01 06:33N 54°58' W 005°01'5 4.6
2016-Feb-01 05:28N 55°01' W 005°07'1718.4
2016-Feb-01 04:34N 54°55' W 005°33'9 9.3
2016-Feb-01 03:33N 54°51' W 005°48'0 0.0
2016-Feb-01 02:33N 54°51' W 005°48'0 0.0
2016-Feb-01 01:34N 54°51' W 005°48'4 4.0
2016-Feb-01 00:33N 54°53' W 005°42'2019.7
2016-Jan-31 23:34N 55°01' W 005°11'7 6.5
2016-Jan-31 22:32N 54°58' W 005°01'9 9.4
2016-Jan-31 21:33N 54°59' W 005°17'2019.1
2016-Jan-31 20:31N 54°51' W 005°48'0 0.0
2016-Jan-31 19:30N 54°51' W 005°48'0 0.0
2016-Jan-31 18:33N 54°51' W 005°48'1110.9
2016-Jan-31 17:34N 54°56' W 005°32'1716.3
2016-Jan-31 16:33N 54°60' W 005°03'2 2.3
2016-Jan-31 15:31N 54°58' W 005°01'5 5.2
2016-Jan-31 14:33N 55°02' W 005°07'1817.9
2016-Jan-31 13:33N 54°54' W 005°35'8 8.2
2016-Jan-31 12:33N 54°51' W 005°48'0 0.0
2016-Jan-31 11:33N 54°51' W 005°48'0 0.0
2016-Jan-31 10:33N 54°51' W 005°48'0 0.0
2016-Jan-31 09:33N 54°51' W 005°48'1212.2
2016-Jan-31 08:33N 54°57' W 005°29'1515.0
2016-Jan-31 07:32N 54°59' W 005°03'2 2.2
2016-Jan-31 06:33N 54°58' W 005°01'0 0.0
2016-Jan-31 05:33N 54°58' W 005°01'0 0.0
2016-Jan-31 04:31N 54°58' W 005°01'0 0.0
2016-Jan-31 03:33N 54°58' W 005°01'0 0.0
2016-Jan-31 02:33N 54°58' W 005°01'0 0.0
2016-Jan-31 01:32N 54°58' W 005°01'0 0.0
2016-Jan-31 00:33N 54°58' W 005°01'0 0.0
2016-Jan-30 23:33N 54°58' W 005°01'0 0.0
2016-Jan-30 22:31N 54°58' W 005°01'5 5.3
2016-Jan-30 21:30N 55°01' W 005°08'1516.3
2016-Jan-30 20:33N 54°55' W 005°32'10 9.9
2016-Jan-30 19:33N 54°51' W 005°48'0 0.0
2016-Jan-30 18:33N 54°51' W 005°48'1312.7
2016-Jan-30 17:34N 54°57' W 005°29'1515.2
2016-Jan-30 16:33N 54°59' W 005°02'1 1.2
2016-Jan-30 15:30N 54°58' W 005°01'1111.6
2016-Jan-30 14:33N 54°58' W 005°20'1717.4
2016-Jan-30 13:33N 54°51' W 005°48'0 0.1
2016-Jan-30 12:33N 54°51' W 005°48'1313.1
2016-Jan-30 11:33N 54°57' W 005°28'1514.5
2016-Jan-30 10:33N 54°59' W 005°02'1 1.4
2016-Jan-30 09:34N 54°58' W 005°01'9 8.6
2016-Jan-30 08:33N 54°59' W 005°16'1818.3
2016-Jan-30 07:33N 54°52' W 005°45'2 2.3
2016-Jan-30 06:33N 54°51' W 005°48'6 6.1
2016-Jan-30 05:33N 54°54' W 005°39'1818.2
2016-Jan-30 04:33N 55°02' W 005°10'7 6.5
2016-Jan-30 03:33N 54°58' W 005°01'0 0.0
2016-Jan-30 02:34N 54°58' W 005°01'5 5.2
2016-Jan-30 01:33N 55°02' W 005°07'1817.7
2016-Jan-30 00:33N 54°54' W 005°35'8 8.2
2016-Jan-29 23:34N 54°51' W 005°48'0 0.0
2016-Jan-29 22:33N 54°51' W 005°48'6 5.7
2016-Jan-29 21:32N 54°54' W 005°39'1818.5
2016-Jan-29 20:34N 55°02' W 005°11'7 6.4
2016-Jan-29 19:30N 54°58' W 005°01'0 0.0
2016-Jan-29 18:33N 54°58' W 005°01'  
Track history (hours):
 
Tides and Currents Weather Stations Pressure Air Temp Water Temp Dewpoint Dewpoint Depression Visibility Wind Speed Wind Dir Waves Ship Positions

European Causeway

Operator: P & O Irish Sea

Last reported at 2016-Feb-08 18:31 UTC. Time now 2016-Feb-08 18:56 UTC.
Position N 54°58' W 005°01'.

Length 165 m; draft 5.5 m.

Type: Passenger vessel. MMSI: 311027000.

Date/timePositionNaut miles runAvg speedWind from/ knotsBaromVisibWave heightAir tempDewpointWater temp
2016-Feb-08 18:31N 54°58' W 005°01'1111.7
2016-Feb-08 17:33N 54°58' W 005°21'1717.1
2016-Feb-08 16:33N 54°51' W 005°48'0 0.0
2016-Feb-08 15:33N 54°51' W 005°48'1413.7
2016-Feb-08 14:34N 54°58' W 005°27'1413.6
2016-Feb-08 13:30N 54°58' W 005°02'1 1.0
2016-Feb-08 12:33N 54°58' W 005°01'1010.4
2016-Feb-08 11:34N 54°58' W 005°19'1817.4
2016-Feb-08 10:32N 54°52' W 005°48'1 0.8
2016-Feb-08 09:33N 54°51' W 005°48'1212.4
2016-Feb-08 08:33N 54°56' W 005°28'1514.3
2016-Feb-08 07:31N 54°59' W 005°03'2 2.0
2016-Feb-08 06:33N 54°58' W 005°01'6 5.9
2016-Feb-08 05:34N 55°01' W 005°09'1616.3
2016-Feb-08 04:33N 54°54' W 005°35'8 8.4
2016-Feb-08 03:33N 54°51' W 005°48'0 0.0
2016-Feb-08 02:34N 54°51' W 005°48'0 0.0
2016-Feb-08 01:33N 54°51' W 005°48'6 6.4
2016-Feb-08 00:33N 54°54' W 005°38'1717.1
2016-Feb-07 23:33N 55°02' W 005°11'7 6.8
2016-Feb-07 22:32N 54°58' W 005°01'6 5.7
2016-Feb-07 21:32N 55°02' W 005°08'1717.4
2016-Feb-07 20:33N 54°55' W 005°35'8 7.8
2016-Feb-07 19:30N 54°51' W 005°48'0 0.0
2016-Feb-07 18:33N 54°51' W 005°48'1414.1
2016-Feb-07 17:33N 54°57' W 005°26'1413.5
2016-Feb-07 16:33N 54°59' W 005°03'1 1.5
2016-Feb-07 15:33N 54°58' W 005°01'5 4.8
2016-Feb-07 14:30N 55°01' W 005°07'1617.2
2016-Feb-07 13:34N 54°55' W 005°33'10 9.3
2016-Feb-07 12:31N 54°51' W 005°48'0 0.0
2016-Feb-07 11:31N 54°51' W 005°48'0 0.0
2016-Feb-07 10:31N 54°51' W 005°48'0 0.0
2016-Feb-07 09:33N 54°51' W 005°48'1413.7
2016-Feb-07 08:33N 54°57' W 005°27'1414.0
2016-Feb-07 07:33N 54°59' W 005°02'1 1.4
2016-Feb-07 06:33N 54°58' W 005°01'0 0.0
2016-Feb-07 05:33N 54°58' W 005°01'0 0.0
2016-Feb-07 04:32N 54°58' W 005°01'0 0.0
2016-Feb-07 03:33N 54°58' W 005°01'0 0.0
2016-Feb-07 02:33N 54°58' W 005°01'0 0.0
2016-Feb-07 01:33N 54°58' W 005°01'0 0.0
2016-Feb-07 00:33N 54°58' W 005°01'0 0.0
2016-Feb-06 23:33N 54°58' W 005°01'0 0.0
2016-Feb-06 22:32N 54°58' W 005°01'5 5.2
2016-Feb-06 21:29N 55°02' W 005°08'1617.7
2016-Feb-06 20:34N 54°54' W 005°33'9 8.9
2016-Feb-06 19:32N 54°51' W 005°48'0 0.0
2016-Feb-06 18:33N 54°51' W 005°48'1414.3
2016-Feb-06 17:33N 54°58' W 005°26'1413.6
2016-Feb-06 16:31N 54°58' W 005°01'0 0.4
2016-Feb-06 15:33N 54°58' W 005°01'1110.9
2016-Feb-06 14:34N 54°58' W 005°20'1817.6
2016-Feb-06 13:34N 54°51' W 005°48'0 0.1
2016-Feb-06 12:32N 54°51' W 005°48'1313.3
2016-Feb-06 11:33N 54°57' W 005°28'1514.1
2016-Feb-06 10:31N 54°59' W 005°03'2 1.7
2016-Feb-06 09:33N 54°58' W 005°01'1010.1
2016-Feb-06 08:33N 54°59' W 005°18'1817.2
2016-Feb-06 07:30N 54°52' W 005°48'1 0.9
2016-Feb-06 06:33N 54°51' W 005°48'6 6.1
2016-Feb-06 05:34N 54°54' W 005°39'1817.4
2016-Feb-06 04:31N 55°01' W 005°10'6 6.6
2016-Feb-06 03:33N 54°58' W 005°01'0 0.0
2016-Feb-06 02:33N 54°58' W 005°01'5 5.3
2016-Feb-06 01:33N 55°01' W 005°07'1616.4
2016-Feb-06 00:33N 54°55' W 005°33'9 9.2
2016-Feb-05 23:33N 54°51' W 005°48'0 0.0
2016-Feb-05 22:31N 54°51' W 005°48'6 6.6
2016-Feb-05 21:33N 54°54' W 005°39'1717.3
2016-Feb-05 20:33N 55°01' W 005°11'7 6.5
2016-Feb-05 19:29N 54°58' W 005°01'0 0.0
2016-Feb-05 18:33N 54°58' W 005°01'1110.7
2016-Feb-05 17:34N 54°58' W 005°20'1817.1
2016-Feb-05 16:32N 54°51' W 005°48'0 0.3
2016-Feb-05 15:33N 54°51' W 005°48'1414.4
2016-Feb-05 14:33N 54°58' W 005°26'1413.9
2016-Feb-05 13:32N 54°58' W 005°02'1 0.7
2016-Feb-05 12:33N 54°58' W 005°01'10 9.9
2016-Feb-05 11:34N 54°59' W 005°18'1818.1
2016-Feb-05 10:33N 54°52' W 005°47'1 1.2
2016-Feb-05 09:33N 54°51' W 005°48'1514.9
2016-Feb-05 08:33N 54°58' W 005°25'1413.7
2016-Feb-05 07:33N 54°58' W 005°01'0 0.0
2016-Feb-05 06:33N 54°58' W 005°01'5 4.9
2016-Feb-05 05:29N 55°02' W 005°07'1617.1
2016-Feb-05 04:33N 54°55' W 005°32'10 9.8
2016-Feb-05 03:33N 54°51' W 005°48'0 0.0
2016-Feb-05 02:33N 54°51' W 005°48'5 5.1
2016-Feb-05 01:32N 54°54' W 005°40'1515.7
2016-Feb-05 00:33N 55°00' W 005°16'9 9.1
2016-Feb-04 23:33N 54°58' W 005°01'0 0.0
2016-Feb-04 22:32N 54°58' W 005°01'6 5.5
2016-Feb-04 21:31N 55°02' W 005°08'1818.1
2016-Feb-04 20:31N 54°54' W 005°37'7 6.1
2016-Feb-04 19:23N 54°51' W 005°48'0 0.0
2016-Feb-04 18:33N 54°51' W 005°48'1414.1
2016-Feb-04 17:34N 54°57' W 005°26'1414.0
2016-Feb-04 16:33N 54°58' W 005°02'1 0.8
2016-Feb-04 15:33N 54°58' W 005°01'1110.6
2016-Feb-04 14:33N 54°58' W 005°19'1817.7
2016-Feb-04 13:33N 54°51' W 005°48'0 0.1
2016-Feb-04 12:34N 54°51' W 005°48'1313.2
2016-Feb-04 11:33N 54°57' W 005°28'1514.5
2016-Feb-04 10:33N 54°59' W 005°03'2 1.5
2016-Feb-04 09:32N 54°58' W 005°01'1010.2
2016-Feb-04 08:34N 54°59' W 005°18'1817.3
2016-Feb-04 07:31N 54°52' W 005°47'1 1.3
2016-Feb-04 06:33N 54°51' W 005°48'7 7.0
2016-Feb-04 05:33N 54°55' W 005°38'1818.3
2016-Feb-04 04:33N 55°01' W 005°08'6 5.7
2016-Feb-04 03:34N 54°58' W 005°01'0 0.0
2016-Feb-04 02:34N 54°58' W 005°01'5 4.9
2016-Feb-04 01:28N 55°01' W 005°08'1718.2
2016-Feb-04 00:32N 54°54' W 005°35'8 8.7
2016-Feb-03 23:33N 54°51' W 005°48'0 0.0
2016-Feb-03 22:33N 54°51' W 005°48'8 7.5
2016-Feb-03 21:26N 54°55' W 005°35'1617.6
2016-Feb-03 20:34N 55°02' W 005°11'7 6.1
2016-Feb-03 19:26N 54°58' W 005°01'0 0.0
2016-Feb-03 18:32N 54°58' W 005°01'1111.6
2016-Feb-03 17:33N 54°58' W 005°21'1717.2
2016-Feb-03 16:33N 54°51' W 005°48'0 0.0
2016-Feb-03 15:33N 54°51' W 005°48'1413.6
2016-Feb-03 14:34N 54°57' W 005°27'1414.3
2016-Feb-03 13:34N 54°59' W 005°02'1 1.3
2016-Feb-03 12:33N 54°58' W 005°01'10 9.9
2016-Feb-03 11:33N 54°58' W 005°18'1817.2
2016-Feb-03 10:32N 54°52' W 005°47'1 1.3
2016-Feb-03 09:33N 54°51' W 005°48'1211.6
2016-Feb-03 08:34N 54°57' W 005°30'1615.3
2016-Feb-03 07:30N 54°59' W 005°03'2 1.7
2016-Feb-03 06:33N 54°58' W 005°01'5 4.5
2016-Feb-03 05:29N 55°01' W 005°06'1617.6
2016-Feb-03 04:33N 54°55' W 005°32'10 9.9
2016-Feb-03 03:33N 54°51' W 005°48'0 0.0
2016-Feb-03 02:33N 54°51' W 005°48'6 5.7
2016-Feb-03 01:32N 54°54' W 005°39'1717.1
2016-Feb-03 00:34N 55°01' W 005°13'7 6.6
2016-Feb-02 23:26N 54°58' W 005°01'0 0.0
2016-Feb-02 22:26N 54°58' W 005°01'5 5.7
2016-Feb-02 21:30N 55°01' W 005°08'1718.0
2016-Feb-02 20:32N 54°54' W 005°35'8 8.3
2016-Feb-02 19:33N 54°51' W 005°48'0 0.0
2016-Feb-02 18:33N 54°51' W 005°48'1111.4
2016-Feb-02 17:33N 54°57' W 005°31'1616.0
2016-Feb-02 16:32N 54°59' W 005°03'1 1.5
2016-Feb-02 15:33N 54°58' W 005°01'1111.1
2016-Feb-02 14:33N 54°58' W 005°20'1717.4
2016-Feb-02 13:33N 54°51' W 005°48'0 0.1
2016-Feb-02 12:33N 54°51' W 005°48'1615.7
2016-Feb-02 11:34N 54°58' W 005°24'1312.9
2016-Feb-02 10:33N 54°58' W 005°01'0 0.0
2016-Feb-02 09:33N 54°58' W 005°01'9 8.8
2016-Feb-02 08:33N 54°59' W 005°16'1918.6
2016-Feb-02 07:33N 54°52' W 005°47'1 1.5
2016-Feb-02 06:33N 54°51' W 005°48'6 6.1
2016-Feb-02 05:34N 54°54' W 005°39'1918.2
2016-Feb-02 04:30N 55°02' W 005°08'6 5.6
2016-Feb-02 03:30N 54°58' W 005°01'0 0.0
2016-Feb-02 02:33N 54°58' W 005°01'5 4.8
2016-Feb-02 01:25N 55°01' W 005°08'1619.0
2016-Feb-02 00:33N 54°55' W 005°34'9 9.1
2016-Feb-01 23:34N 54°51' W 005°48'0 0.0
2016-Feb-01 22:34N 54°51' W 005°48'1110.2
2016-Feb-01 21:27N 54°57' W 005°32'1714.9
2016-Feb-01 20:20N 54°59' W 005°02'1 1.5
2016-Feb-01 19:26N 54°58' W 005°01'0 0.1
2016-Feb-01 18:34N 54°58' W 005°01'1515.2
2016-Feb-01 17:33N 54°56' W 005°28'1312.8
2016-Feb-01 16:33N 54°51' W 005°48'0 0.0
2016-Feb-01 15:31N 54°51' W 005°48'1212.8
2016-Feb-01 14:33N 54°57' W 005°29'1515.2
2016-Feb-01 13:33N 54°59' W 005°03'2 1.9
2016-Feb-01 12:33N 54°58' W 005°01'1010.5
2016-Feb-01 11:33N 54°58' W 005°19'1817.9
2016-Feb-01 10:33N 54°51' W 005°48'0 0.1
2016-Feb-01 09:33N 54°51' W 005°48'1111.4
2016-Feb-01 08:33N 54°57' W 005°31'1615.0
2016-Feb-01 07:30N 54°60' W 005°04'2 2.5
2016-Feb-01 06:33N 54°58' W 005°01'5 4.6
2016-Feb-01 05:28N 55°01' W 005°07'1718.4
2016-Feb-01 04:34N 54°55' W 005°33'9 9.3
2016-Feb-01 03:33N 54°51' W 005°48'0 0.0
2016-Feb-01 02:33N 54°51' W 005°48'0 0.0
2016-Feb-01 01:34N 54°51' W 005°48'4 4.0
2016-Feb-01 00:33N 54°53' W 005°42'2019.7
2016-Jan-31 23:34N 55°01' W 005°11'7 6.5
2016-Jan-31 22:32N 54°58' W 005°01'9 9.4
2016-Jan-31 21:33N 54°59' W 005°17'2019.1
2016-Jan-31 20:31N 54°51' W 005°48'0 0.0
2016-Jan-31 19:30N 54°51' W 005°48'0 0.0
2016-Jan-31 18:33N 54°51' W 005°48'1110.9
2016-Jan-31 17:34N 54°56' W 005°32'1716.3
2016-Jan-31 16:33N 54°60' W 005°03'2 2.3
2016-Jan-31 15:31N 54°58' W 005°01'5 5.2
2016-Jan-31 14:33N 55°02' W 005°07'1817.9
2016-Jan-31 13:33N 54°54' W 005°35'8 8.2
2016-Jan-31 12:33N 54°51' W 005°48'0 0.0
2016-Jan-31 11:33N 54°51' W 005°48'0 0.0
2016-Jan-31 10:33N 54°51' W 005°48'0 0.0
2016-Jan-31 09:33N 54°51' W 005°48'1212.2
2016-Jan-31 08:33N 54°57' W 005°29'1515.0
2016-Jan-31 07:32N 54°59' W 005°03'2 2.2
2016-Jan-31 06:33N 54°58' W 005°01'0 0.0
2016-Jan-31 05:33N 54°58' W 005°01'0 0.0
2016-Jan-31 04:31N 54°58' W 005°01'0 0.0
2016-Jan-31 03:33N 54°58' W 005°01'0 0.0
2016-Jan-31 02:33N 54°58' W 005°01'0 0.0
2016-Jan-31 01:32N 54°58' W 005°01'0 0.0
2016-Jan-31 00:33N 54°58' W 005°01'0 0.0
2016-Jan-30 23:33N 54°58' W 005°01'0 0.0
2016-Jan-30 22:31N 54°58' W 005°01'5 5.3
2016-Jan-30 21:30N 55°01' W 005°08'1516.3
2016-Jan-30 20:33N 54°55' W 005°32'10 9.9
2016-Jan-30 19:33N 54°51' W 005°48'0 0.0
2016-Jan-30 18:33N 54°51' W 005°48'1312.7
2016-Jan-30 17:34N 54°57' W 005°29'1515.2
2016-Jan-30 16:33N 54°59' W 005°02'1 1.2
2016-Jan-30 15:30N 54°58' W 005°01'1111.6
2016-Jan-30 14:33N 54°58' W 005°20'1717.4
2016-Jan-30 13:33N 54°51' W 005°48'0 0.1
2016-Jan-30 12:33N 54°51' W 005°48'1313.1
2016-Jan-30 11:33N 54°57' W 005°28'1514.5
2016-Jan-30 10:33N 54°59' W 005°02'1 1.4
2016-Jan-30 09:34N 54°58' W 005°01'9 8.6
2016-Jan-30 08:33N 54°59' W 005°16'1818.3
2016-Jan-30 07:33N 54°52' W 005°45'2 2.3
2016-Jan-30 06:33N 54°51' W 005°48'6 6.1
2016-Jan-30 05:33N 54°54' W 005°39'1818.2
2016-Jan-30 04:33N 55°02' W 005°10'7 6.5
2016-Jan-30 03:33N 54°58' W 005°01'0 0.0
2016-Jan-30 02:34N 54°58' W 005°01'5 5.2
2016-Jan-30 01:33N 55°02' W 005°07'1817.7
2016-Jan-30 00:33N 54°54' W 005°35'8 8.2
2016-Jan-29 23:34N 54°51' W 005°48'0 0.0
2016-Jan-29 22:33N 54°51' W 005°48'6 5.7
2016-Jan-29 21:32N 54°54' W 005°39'1818.5
2016-Jan-29 20:34N 55°02' W 005°11'7 6.4
2016-Jan-29 19:30N 54°58' W 005°01'0 0.0
2016-Jan-29 18:33N 54°58' W 005°01'  

Dump ship's entire track history